createdAt,value
2022-11-24T00:00:53.184Z,95.23
2022-11-24T00:03:19.904Z,95.34
2022-11-24T00:05:46.371Z,95.48
2022-11-24T00:08:13.116Z,95.37
2022-11-24T00:10:39.525Z,95.19
2022-11-24T00:13:05.912Z,95.19
2022-11-24T00:15:32.344Z,95.10
2022-11-24T00:17:58.700Z,95.33
2022-11-24T00:20:25.085Z,95.14
2022-11-24T00:22:51.515Z,95.14
2022-11-24T00:25:17.881Z,94.96
2022-11-24T00:27:44.432Z,94.90
2022-11-24T00:30:11.384Z,94.98
2022-11-24T00:32:37.791Z,94.91
2022-11-24T00:35:04.571Z,94.69
2022-11-24T00:37:31.220Z,94.76
2022-11-24T00:39:57.590Z,94.60
2022-11-24T00:42:24.020Z,94.62
2022-11-24T00:44:50.363Z,94.67
2022-11-24T00:47:16.775Z,94.67
2022-11-24T00:49:43.198Z,94.65
2022-11-24T00:52:09.658Z,94.76
2022-11-24T00:54:36.046Z,94.82
2022-11-24T00:57:02.394Z,94.72
2022-11-24T00:59:28.775Z,94.72
2022-11-24T01:01:55.264Z,94.84
2022-11-24T01:04:22.163Z,94.70
2022-11-24T01:06:48.561Z,94.54
2022-11-24T01:09:14.930Z,94.67
2022-11-24T01:11:59.938Z,94.66
2022-11-24T01:14:26.870Z,94.72
2022-11-24T01:16:54.029Z,94.67
2022-11-24T01:19:21.201Z,94.64
2022-11-24T01:21:47.611Z,94.53
2022-11-24T01:24:14.498Z,94.21
2022-11-24T01:26:41.297Z,94.59
2022-11-24T01:29:09.350Z,94.57
2022-11-24T01:31:37.017Z,94.65
2022-11-24T01:34:03.612Z,94.33
2022-11-24T01:36:29.979Z,94.42
2022-11-24T01:38:56.345Z,94.45
2022-11-24T01:41:24.539Z,94.42
2022-11-24T01:43:52.916Z,94.27
2022-11-24T01:46:30.626Z,94.35
2022-11-24T01:49:06.047Z,94.27
2022-11-24T01:51:36.143Z,94.20
2022-11-24T01:54:11.208Z,94.24
2022-11-24T01:56:42.493Z,94.54
2022-11-24T01:59:14.222Z,94.27
2022-11-24T02:01:40.725Z,94.35
2022-11-24T02:04:12.713Z,94.14
2022-11-24T02:06:43.226Z,94.15
2022-11-24T02:09:19.646Z,94.00
2022-11-24T02:11:47.078Z,93.81
2022-11-24T02:14:16.459Z,93.85
2022-11-24T02:16:48.153Z,93.67
2022-11-24T02:19:52.900Z,93.24
2022-11-24T02:22:31.206Z,93.07
2022-11-24T02:25:09.908Z,93.02
2022-11-24T02:27:36.426Z,93.00
2022-11-24T02:30:04.187Z,92.77
2022-11-24T02:32:33.122Z,92.69
2022-11-24T02:35:05.787Z,92.70
2022-11-24T02:37:32.165Z,92.47
2022-11-24T02:39:58.532Z,92.46
2022-11-24T02:42:31.826Z,92.28
2022-11-24T02:45:00.238Z,92.28
2022-11-24T02:47:26.995Z,92.02
2022-11-24T02:49:53.419Z,91.85
2022-11-24T02:52:19.963Z,91.82
2022-11-24T02:54:46.379Z,91.72
2022-11-24T02:57:12.752Z,91.71
2022-11-24T02:59:39.182Z,91.57
2022-11-24T03:02:05.646Z,91.80
2022-11-24T03:04:32.617Z,91.24
2022-11-24T03:06:59.296Z,91.58
2022-11-24T03:09:25.678Z,91.45
2022-11-24T03:11:52.025Z,91.33
2022-11-24T03:14:18.393Z,90.93
2022-11-24T03:16:44.838Z,90.87
2022-11-24T03:19:11.315Z,90.82
2022-11-24T03:21:37.705Z,90.60
2022-11-24T03:24:04.478Z,90.61
2022-11-24T03:26:30.871Z,90.83
2022-11-24T03:28:57.489Z,90.70
2022-11-24T03:31:24.372Z,90.45
2022-11-24T03:33:50.864Z,90.26
2022-11-24T03:36:17.904Z,90.12
2022-11-24T03:38:44.311Z,90.21
2022-11-24T03:41:10.903Z,90.11
2022-11-24T03:43:43.146Z,90.11
2022-11-24T03:46:12.334Z,90.18
2022-11-24T03:48:39.220Z,90.14
2022-11-24T03:51:05.922Z,90.09
2022-11-24T03:53:33.612Z,89.86
2022-11-24T03:56:00.738Z,89.89
2022-11-24T03:58:27.138Z,89.88
2022-11-24T04:00:54.891Z,89.90
2022-11-24T04:03:22.216Z,89.62
2022-11-24T04:05:49.012Z,89.53
2022-11-24T04:08:15.877Z,89.32
2022-11-24T04:10:42.427Z,89.55
2022-11-24T04:13:17.886Z,89.35
2022-11-24T04:15:44.626Z,89.59
2022-11-24T04:18:12.241Z,89.45
2022-11-24T04:20:39.347Z,89.63
2022-11-24T04:23:05.691Z,89.48
2022-11-24T04:25:32.375Z,89.52
2022-11-24T04:27:58.739Z,89.56
2022-11-24T04:30:26.907Z,89.37
2022-11-24T04:32:53.468Z,89.75
2022-11-24T04:35:20.775Z,89.71
2022-11-24T04:37:47.638Z,89.79
2022-11-24T04:40:14.941Z,89.63
2022-11-24T04:42:41.669Z,89.96
2022-11-24T04:45:08.334Z,90.40
2022-11-24T04:47:34.834Z,90.13
2022-11-24T04:50:01.162Z,90.33
2022-11-24T04:52:27.582Z,90.29
2022-11-24T04:54:53.934Z,90.51
2022-11-24T04:57:22.818Z,90.43
2022-11-24T04:59:50.001Z,90.60
2022-11-24T05:02:16.824Z,90.65
2022-11-24T05:04:43.356Z,90.79
2022-11-24T05:07:18.256Z,90.83
2022-11-24T05:10:03.790Z,90.97
2022-11-24T05:12:31.185Z,91.02
2022-11-24T05:15:02.114Z,91.03
2022-11-24T05:17:30.593Z,90.90
2022-11-24T05:19:57.538Z,90.76
2022-11-24T05:22:24.034Z,90.71
2022-11-24T05:24:50.412Z,90.87
2022-11-24T05:27:17.019Z,90.62
2022-11-24T05:29:43.531Z,90.77
2022-11-24T05:32:09.925Z,90.59
2022-11-24T05:34:36.559Z,90.55
2022-11-24T05:37:03.804Z,90.51
2022-11-24T05:39:34.413Z,90.37
2022-11-24T05:42:22.616Z,90.49
2022-11-24T05:44:49.078Z,90.32
2022-11-24T05:47:15.706Z,90.23
2022-11-24T05:49:42.506Z,90.25
2022-11-24T05:52:09.198Z,90.26
2022-11-24T05:54:35.820Z,90.21
2022-11-24T05:57:02.374Z,90.40
2022-11-24T05:59:28.702Z,90.43
2022-11-24T06:01:55.145Z,90.27
2022-11-24T06:04:21.597Z,90.40
2022-11-24T06:06:47.944Z,90.54
2022-11-24T06:09:14.620Z,90.61
2022-11-24T06:11:40.997Z,90.65
2022-11-24T06:14:11.087Z,90.70
2022-11-24T06:16:38.206Z,90.63
2022-11-24T06:19:04.678Z,90.94
2022-11-24T06:21:31.717Z,90.91
2022-11-24T06:23:58.285Z,91.18
2022-11-24T06:26:24.753Z,91.04
2022-11-24T06:28:51.194Z,91.06
2022-11-24T06:31:17.679Z,91.20
2022-11-24T06:33:44.219Z,91.34
2022-11-24T06:36:13.332Z,91.41
2022-11-24T06:38:39.672Z,91.39
2022-11-24T06:41:09.548Z,91.54
2022-11-24T06:43:36.059Z,91.69
2022-11-24T06:46:03.011Z,91.69
2022-11-24T06:48:30.276Z,91.67
2022-11-24T06:51:04.835Z,91.89
2022-11-24T06:53:32.785Z,92.07
2022-11-24T06:56:00.517Z,92.53
2022-11-24T06:58:26.915Z,92.25
2022-11-24T07:00:53.460Z,92.31
2022-11-24T07:03:20.089Z,92.24
2022-11-24T07:05:46.812Z,92.58
2022-11-24T07:08:17.736Z,92.82
2022-11-24T07:10:44.499Z,92.74
2022-11-24T07:13:11.016Z,92.85
2022-11-24T07:15:37.437Z,92.82
2022-11-24T07:18:04.304Z,93.20
2022-11-24T07:20:30.632Z,93.28
2022-11-24T07:22:57.883Z,93.46
2022-11-24T07:25:25.452Z,93.58
2022-11-24T07:27:58.824Z,93.65
2022-11-24T07:30:26.894Z,93.80
2022-11-24T07:32:59.146Z,93.91
2022-11-24T07:35:25.683Z,93.75
2022-11-24T07:37:55.695Z,93.95
2022-11-24T07:40:23.147Z,94.17
2022-11-24T07:42:49.527Z,94.42
2022-11-24T07:45:15.986Z,94.22
2022-11-24T07:47:42.422Z,94.31
2022-11-24T07:50:10.010Z,94.22
2022-11-24T07:52:37.469Z,94.14
2022-11-24T07:55:04.829Z,94.65
2022-11-24T07:57:31.314Z,94.26
2022-11-24T07:59:57.768Z,94.33
2022-11-24T08:02:24.188Z,94.36
2022-11-24T08:04:50.571Z,94.44
2022-11-24T08:07:17.110Z,94.43
2022-11-24T08:09:43.497Z,94.42
2022-11-24T08:12:09.877Z,94.43
2022-11-24T08:14:36.502Z,94.58
2022-11-24T08:17:03.175Z,94.55
2022-11-24T08:19:29.598Z,94.46
2022-11-24T08:21:55.919Z,94.57
2022-11-24T08:24:22.910Z,94.69
2022-11-24T08:26:49.281Z,94.74
2022-11-24T08:29:15.768Z,94.63
2022-11-24T08:31:42.169Z,94.96
2022-11-24T08:34:09.746Z,94.90
2022-11-24T08:36:36.352Z,94.78
2022-11-24T08:39:03.599Z,94.73
2022-11-24T08:41:31.009Z,94.66
2022-11-24T08:43:57.537Z,94.79
2022-11-24T08:46:24.181Z,94.80
2022-11-24T08:48:53.917Z,94.88
2022-11-24T08:51:23.536Z,94.84
2022-11-24T08:53:54.640Z,94.84
2022-11-24T08:56:21.019Z,94.63
2022-11-24T08:58:47.615Z,94.40
2022-11-24T09:01:15.880Z,94.67
2022-11-24T09:03:49.978Z,94.41
2022-11-24T09:06:18.167Z,94.54
2022-11-24T09:08:44.538Z,94.59
2022-11-24T09:11:14.146Z,94.61
2022-11-24T09:13:41.109Z,94.51
2022-11-24T09:16:09.432Z,94.54
2022-11-24T09:18:36.569Z,94.27
2022-11-24T09:21:10.253Z,94.46
2022-11-24T09:23:36.975Z,94.48
2022-11-24T09:26:05.897Z,94.48
2022-11-24T09:28:32.298Z,94.20
2022-11-24T09:31:07.612Z,93.95
2022-11-24T09:33:35.286Z,93.54
2022-11-24T09:36:02.124Z,93.27
2022-11-24T09:38:28.807Z,93.18
2022-11-24T09:40:55.895Z,92.62
2022-11-24T09:43:33.499Z,92.29
2022-11-24T09:46:06.562Z,91.94
2022-11-24T09:48:46.310Z,91.23
2022-11-24T09:51:15.414Z,91.19
2022-11-24T09:53:54.114Z,90.79
2022-11-24T09:56:23.810Z,90.00
2022-11-24T09:59:02.639Z,90.07
2022-11-24T10:01:35.676Z,89.16
2022-11-24T10:04:06.238Z,89.06
2022-11-24T10:06:45.527Z,88.79
2022-11-24T10:09:11.927Z,88.85
2022-11-24T10:11:43.049Z,88.70
2022-11-24T10:14:19.281Z,88.17
2022-11-24T10:16:57.174Z,87.50
2022-11-24T10:19:48.190Z,87.13
2022-11-24T10:22:30.979Z,87.00
2022-11-24T10:25:20.901Z,86.94
2022-11-24T10:27:54.495Z,87.06
2022-11-24T10:30:24.026Z,86.66
2022-11-24T10:33:02.619Z,86.04
2022-11-24T10:35:47.139Z,85.67
2022-11-24T10:38:35.918Z,85.72
2022-11-24T10:41:07.767Z,85.58
2022-11-24T10:43:34.230Z,84.93
2022-11-24T10:46:25.662Z,84.85
2022-11-24T10:49:04.717Z,84.58
2022-11-24T10:51:31.054Z,84.23
2022-11-24T10:54:05.656Z,83.22
2022-11-24T10:56:42.791Z,83.36
2022-11-24T10:59:24.291Z,83.13
2022-11-24T11:01:54.870Z,82.10
2022-11-24T11:04:26.476Z,81.71
2022-11-24T11:07:06.489Z,81.88
2022-11-24T11:09:33.217Z,81.50
2022-11-24T11:12:42.225Z,80.22
2022-11-24T11:14:56.842Z,80.69
2022-11-24T11:17:38.940Z,80.51
2022-11-24T11:20:16.193Z,80.35
2022-11-24T11:22:45.289Z,79.62
2022-11-24T11:25:11.725Z,80.36
2022-11-24T11:27:40.306Z,80.40
2022-11-24T11:35:49.768Z,79.01
2022-11-24T11:38:16.245Z,79.00
2022-11-24T11:40:43.847Z,78.95
2022-11-24T11:43:18.695Z,77.73
2022-11-24T11:45:46.594Z,78.93
2022-11-24T11:48:31.435Z,77.44
2022-11-24T11:51:26.647Z,77.59
2022-11-24T11:54:13.466Z,76.30
2022-11-24T11:56:45.129Z,76.62
2022-11-24T11:59:52.647Z,76.46
2022-11-24T12:02:51.715Z,76.24
2022-11-24T12:05:43.401Z,76.52
2022-11-24T12:08:49.797Z,76.19
2022-11-24T12:12:02.732Z,75.45
2022-11-24T12:14:55.795Z,75.09
2022-11-24T12:17:50.705Z,75.18
2022-11-24T12:20:56.180Z,74.50
2022-11-24T12:23:44.939Z,74.26
2022-11-24T12:26:26.217Z,74.77
2022-11-24T12:28:59.957Z,73.88
2022-11-24T12:31:59.289Z,75.05
2022-11-24T12:34:47.030Z,74.31
2022-11-24T12:37:50.926Z,74.33
2022-11-24T12:40:42.172Z,74.29
2022-11-24T12:43:38.891Z,74.11
2022-11-24T12:46:44.834Z,73.95
2022-11-24T12:49:24.546Z,73.45
2022-11-24T12:51:59.689Z,73.28
2022-11-24T12:54:33.229Z,74.31
2022-11-24T12:57:13.361Z,73.44
2022-11-24T12:59:45.598Z,74.14
2022-11-24T13:02:33.347Z,74.30
2022-11-24T13:05:28.619Z,75.24
2022-11-24T13:07:58.512Z,75.33
2022-11-24T13:13:13.285Z,75.18
2022-11-24T13:16:34.735Z,75.04
2022-11-24T13:18:47.789Z,74.86
2022-11-24T13:21:40.045Z,75.69
2022-11-24T13:24:22.686Z,75.18
2022-11-24T13:27:10.849Z,75.31
2022-11-24T13:29:38.370Z,75.00
2022-11-24T13:32:04.663Z,75.85
2022-11-24T13:34:43.190Z,75.84
2022-11-24T13:37:31.523Z,75.74
2022-11-24T13:40:23.649Z,75.68
2022-11-24T13:43:01.163Z,76.29
2022-11-24T13:45:39.783Z,75.72
2022-11-24T13:48:22.507Z,76.25
2022-11-24T13:50:55.988Z,76.20
2022-11-24T13:53:36.647Z,76.20
2022-11-24T13:56:02.923Z,76.76
2022-11-24T13:58:49.623Z,76.67
2022-11-24T14:01:24.202Z,76.47
2022-11-24T14:04:31.923Z,76.59
2022-11-24T14:07:09.427Z,76.54
2022-11-24T14:09:48.019Z,76.62
2022-11-24T14:12:14.367Z,76.80
2022-11-24T14:14:41.498Z,76.69
2022-11-24T14:17:15.750Z,77.36
2022-11-24T14:19:50.859Z,77.60
2022-11-24T14:22:20.923Z,77.44
2022-11-24T14:24:55.771Z,77.40
2022-11-24T14:27:28.773Z,77.55
2022-11-24T14:29:58.077Z,77.66
2022-11-24T14:32:24.982Z,77.78
2022-11-24T14:34:52.134Z,77.79
2022-11-24T14:37:21.573Z,77.96
2022-11-24T14:39:48.254Z,78.29
2022-11-24T14:42:27.493Z,78.12
2022-11-24T14:44:59.683Z,78.58
2022-11-24T14:47:33.532Z,78.86
2022-11-24T14:50:10.576Z,78.62
2022-11-24T14:53:02.110Z,78.77
2022-11-24T14:55:30.837Z,79.03
2022-11-24T14:57:59.640Z,79.60
2022-11-24T15:00:33.029Z,79.47
2022-11-24T15:03:02.341Z,79.65
2022-11-24T15:05:52.358Z,79.84
2022-11-24T15:08:18.928Z,79.86
2022-11-24T15:10:46.000Z,80.46
2022-11-24T15:13:21.633Z,80.43
2022-11-24T15:16:00.535Z,80.34
2022-11-24T15:18:36.253Z,80.55
2022-11-24T15:21:03.451Z,80.49
2022-11-24T15:23:31.831Z,80.89
2022-11-24T15:26:18.158Z,81.10
2022-11-24T15:28:47.542Z,81.34
2022-11-24T15:31:14.687Z,81.15
2022-11-24T15:33:42.143Z,81.29
2022-11-24T15:36:08.576Z,81.92
2022-11-24T15:38:34.958Z,81.92
2022-11-24T15:41:01.861Z,82.13
2022-11-24T15:43:36.883Z,82.38
2022-11-24T15:46:04.827Z,82.64
2022-11-24T15:48:31.312Z,82.66
2022-11-24T15:50:58.905Z,82.72
2022-11-24T15:53:33.398Z,82.76
2022-11-24T15:56:02.215Z,83.20
2022-11-24T15:58:28.731Z,83.40
2022-11-24T16:00:55.214Z,83.59
2022-11-24T16:03:46.409Z,83.67
2022-11-24T16:06:23.374Z,83.96
2022-11-24T16:08:50.938Z,83.88
2022-11-24T16:11:17.432Z,84.02
2022-11-24T16:13:50.104Z,84.76
2022-11-24T16:16:19.230Z,84.75
2022-11-24T16:18:45.840Z,84.58
2022-11-24T16:21:12.328Z,84.87
2022-11-24T16:23:38.786Z,84.74
2022-11-24T16:26:05.788Z,85.25
2022-11-24T16:28:32.468Z,85.37
2022-11-24T16:30:58.787Z,85.40
2022-11-24T16:33:25.209Z,85.41
2022-11-24T16:35:51.608Z,85.71
2022-11-24T16:38:22.020Z,85.48
2022-11-24T16:40:52.982Z,85.72
2022-11-24T16:43:19.755Z,85.67
2022-11-24T16:45:46.262Z,85.78
2022-11-24T16:48:12.707Z,85.88
2022-11-24T16:50:39.046Z,85.90
2022-11-24T16:53:05.405Z,85.99
2022-11-24T16:55:31.738Z,86.15
2022-11-24T16:57:58.049Z,85.98
2022-11-24T17:00:24.575Z,86.09
2022-11-24T17:02:51.364Z,86.12
2022-11-24T17:05:17.838Z,86.20
2022-11-24T17:07:44.232Z,86.21
2022-11-24T17:10:10.864Z,86.46
2022-11-24T17:12:37.613Z,86.32
2022-11-24T17:18:22.472Z,86.42
2022-11-24T17:20:38.146Z,86.79
2022-11-24T17:23:04.557Z,86.94
2022-11-24T17:25:33.050Z,86.65
2022-11-24T17:27:59.472Z,86.99
2022-11-24T17:30:25.875Z,86.97
2022-11-24T17:32:56.539Z,87.33
2022-11-24T17:35:23.594Z,87.07
2022-11-24T17:37:50.014Z,87.14
2022-11-24T17:40:34.286Z,86.96
2022-11-24T17:43:01.611Z,86.95
2022-11-24T17:45:29.267Z,87.19
2022-11-24T17:47:58.413Z,87.14
2022-11-24T17:50:26.246Z,87.16
2022-11-24T17:52:53.326Z,87.21
2022-11-24T17:55:19.819Z,87.19
2022-11-24T17:57:46.222Z,87.14
2022-11-24T18:00:13.238Z,87.07
2022-11-24T18:02:39.753Z,87.39
2022-11-24T18:05:06.657Z,87.27
2022-11-24T18:07:35.612Z,87.30
2022-11-24T18:10:02.032Z,87.20
2022-11-24T18:12:28.437Z,87.16
2022-11-24T18:14:55.023Z,87.08
2022-11-24T18:17:21.416Z,87.43
2022-11-24T18:19:47.742Z,87.15
2022-11-24T18:22:14.146Z,87.25
2022-11-24T18:24:40.610Z,87.13
2022-11-24T18:27:07.194Z,87.10
2022-11-24T18:29:33.596Z,86.91
2022-11-24T18:32:00.287Z,87.13
2022-11-24T18:34:26.710Z,86.78
2022-11-24T18:36:53.190Z,86.64
2022-11-24T18:39:19.642Z,86.38
2022-11-24T18:41:46.409Z,86.55
2022-11-24T18:44:12.843Z,86.64
2022-11-24T18:46:39.302Z,86.33
2022-11-24T18:49:07.283Z,86.41
2022-11-24T18:51:33.923Z,86.53
2022-11-24T18:54:02.086Z,86.44
2022-11-24T18:56:28.448Z,86.35
2022-11-24T18:58:56.307Z,86.24
2022-11-24T19:01:25.566Z,86.46
2022-11-24T19:03:54.151Z,86.26
2022-11-24T19:06:22.968Z,85.85
2022-11-24T19:08:53.399Z,86.41
2022-11-24T19:11:28.234Z,86.07
2022-11-24T19:13:55.659Z,86.32
2022-11-24T19:16:23.145Z,86.08
2022-11-24T19:18:53.688Z,86.35
2022-11-24T19:21:21.856Z,86.38
2022-11-24T19:23:48.298Z,86.08
2022-11-24T19:26:14.934Z,85.90
2022-11-24T19:28:41.445Z,86.00
2022-11-24T19:31:10.522Z,85.99
2022-11-24T19:33:37.014Z,86.04
2022-11-24T19:36:05.886Z,85.96
2022-11-24T19:38:33.376Z,85.66
2022-11-24T19:41:05.069Z,85.32
2022-11-24T19:43:32.222Z,85.73
2022-11-24T19:46:10.263Z,85.26
2022-11-24T19:48:39.047Z,85.31
2022-11-24T19:51:08.176Z,85.31
2022-11-24T19:53:34.951Z,85.27
2022-11-24T19:56:13.005Z,85.34
2022-11-24T19:58:40.543Z,85.33
2022-11-24T20:01:11.515Z,85.24
2022-11-24T20:03:39.433Z,85.32
2022-11-24T20:06:07.897Z,85.28
2022-11-24T20:08:36.173Z,85.30
2022-11-24T20:11:07.009Z,85.28
2022-11-24T20:13:35.114Z,85.01
2022-11-24T20:16:13.615Z,85.29
2022-11-24T20:18:43.824Z,85.07
2022-11-24T20:21:18.958Z,85.06
2022-11-24T20:23:51.555Z,85.15
2022-11-24T20:26:20.777Z,85.10
2022-11-24T20:28:47.550Z,85.30
2022-11-24T20:31:19.188Z,85.12
2022-11-24T20:33:45.927Z,85.13
2022-11-24T20:36:15.272Z,85.15
2022-11-24T20:38:42.829Z,84.98
2022-11-24T20:41:18.340Z,84.94
2022-11-24T20:43:45.498Z,85.12
2022-11-24T20:46:16.958Z,84.92
2022-11-24T20:48:43.632Z,84.95
2022-11-24T20:51:21.550Z,84.84
2022-11-24T20:53:49.432Z,85.05
2022-11-24T20:56:18.569Z,84.93
2022-11-24T20:58:45.315Z,84.84
2022-11-24T21:01:19.991Z,84.90
2022-11-24T21:03:50.914Z,84.80
2022-11-24T21:06:17.234Z,84.92
2022-11-24T21:08:43.622Z,84.54
2022-11-24T21:11:12.164Z,84.50
2022-11-24T21:13:40.987Z,84.55
2022-11-24T21:16:18.055Z,84.68
2022-11-24T21:18:45.791Z,84.72
2022-11-24T21:21:12.934Z,84.85
2022-11-24T21:23:39.597Z,84.60
2022-11-24T21:26:13.150Z,84.64
2022-11-24T21:28:43.529Z,84.53
2022-11-24T21:31:21.061Z,84.62
2022-11-24T21:33:49.526Z,84.50
2022-11-24T21:36:19.557Z,84.40
2022-11-24T21:38:56.999Z,84.51
2022-11-24T21:41:25.437Z,84.44
2022-11-24T21:43:53.100Z,84.51
2022-11-24T21:46:19.645Z,84.62
2022-11-24T21:48:46.091Z,84.57
2022-11-24T21:51:17.448Z,84.52
2022-11-24T21:53:44.718Z,84.59
2022-11-24T21:56:19.595Z,84.88
2022-11-24T21:58:55.093Z,84.69
2022-11-24T22:01:24.385Z,84.82
2022-11-24T22:03:51.286Z,84.69
2022-11-24T22:06:19.199Z,84.79
2022-11-24T22:08:47.259Z,85.10
2022-11-24T22:11:14.949Z,84.83
2022-11-24T22:13:42.982Z,85.01
2022-11-24T22:16:12.604Z,85.09
2022-11-24T22:18:40.984Z,85.05
2022-11-24T22:21:11.483Z,84.81
2022-11-24T22:23:38.068Z,85.39
2022-11-24T22:26:12.412Z,85.16
2022-11-24T22:28:39.130Z,84.97
2022-11-24T22:31:11.761Z,85.13
2022-11-24T22:33:38.205Z,85.49
2022-11-24T22:36:05.226Z,85.43
2022-11-24T22:38:32.441Z,85.38
2022-11-24T22:41:04.472Z,85.45
2022-11-24T22:43:33.178Z,85.10
2022-11-24T22:46:04.950Z,85.39
2022-11-24T22:48:31.773Z,85.44
2022-11-24T22:51:02.906Z,85.33
2022-11-24T22:53:29.543Z,85.47
2022-11-24T22:55:56.007Z,85.64
2022-11-24T22:58:22.519Z,85.61
2022-11-24T23:00:48.846Z,85.76
2022-11-24T23:03:15.232Z,85.84
2022-11-24T23:05:41.635Z,85.86
2022-11-24T23:08:08.028Z,85.76
2022-11-24T23:10:34.388Z,86.06
2022-11-24T23:13:00.782Z,86.03
2022-11-24T23:15:27.194Z,86.16
2022-11-24T23:17:53.574Z,86.34
2022-11-24T23:20:19.989Z,86.33
2022-11-24T23:22:46.456Z,86.26
2022-11-24T23:25:12.775Z,86.60
2022-11-24T23:27:39.152Z,86.51
2022-11-24T23:30:06.334Z,86.67
2022-11-24T23:32:32.701Z,86.99
2022-11-24T23:34:59.046Z,87.09
2022-11-24T23:37:34.453Z,87.10
2022-11-24T23:40:12.215Z,87.42
2022-11-24T23:42:38.539Z,87.51
2022-11-24T23:45:05.833Z,87.63
2022-11-24T23:47:32.165Z,88.26
2022-11-24T23:49:58.578Z,88.15
2022-11-24T23:52:24.943Z,88.68
2022-11-24T23:54:51.350Z,88.87
2022-11-24T23:57:17.682Z,89.36
2022-11-24T23:59:44.070Z,89.59
